sensor_id;sensor_type;location;lat;lon;timestamp;P1;durP1;ratioP1;P2;durP2;ratioP2
30519;SDS011;17300;50.374;8.006;2023-07-20T00:00:55;2.60;;;1.50;;
30519;SDS011;17300;50.374;8.006;2023-07-20T00:03:22;1.40;;;1.30;;
30519;SDS011;17300;50.374;8.006;2023-07-20T00:05:50;1.57;;;1.40;;
30519;SDS011;17300;50.374;8.006;2023-07-20T00:08:17;3.00;;;1.67;;
30519;SDS011;17300;50.374;8.006;2023-07-20T00:10:44;1.47;;;1.17;;
30519;SDS011;17300;50.374;8.006;2023-07-20T00:13:11;2.33;;;1.50;;
30519;SDS011;17300;50.374;8.006;2023-07-20T00:15:39;2.23;;;1.40;;
30519;SDS011;17300;50.374;8.006;2023-07-20T00:18:06;3.13;;;1.60;;
30519;SDS011;17300;50.374;8.006;2023-07-20T00:20:32;3.10;;;1.70;;
30519;SDS011;17300;50.374;8.006;2023-07-20T00:22:59;1.70;;;1.40;;
30519;SDS011;17300;50.374;8.006;2023-07-20T00:25:26;1.60;;;1.50;;
30519;SDS011;17300;50.374;8.006;2023-07-20T00:27:52;3.67;;;1.70;;
30519;SDS011;17300;50.374;8.006;2023-07-20T00:30:19;2.50;;;1.43;;
30519;SDS011;17300;50.374;8.006;2023-07-20T00:32:47;1.83;;;1.43;;
30519;SDS011;17300;50.374;8.006;2023-07-20T00:35:14;2.47;;;1.40;;
30519;SDS011;17300;50.374;8.006;2023-07-20T00:37:40;1.40;;;1.30;;
30519;SDS011;17300;50.374;8.006;2023-07-20T00:40:07;2.80;;;1.70;;
30519;SDS011;17300;50.374;8.006;2023-07-20T00:42:34;2.73;;;1.50;;
30519;SDS011;17300;50.374;8.006;2023-07-20T00:45:01;2.50;;;1.57;;
30519;SDS011;17300;50.374;8.006;2023-07-20T00:47:28;2.03;;;1.60;;
30519;SDS011;17300;50.374;8.006;2023-07-20T00:49:56;2.60;;;1.53;;
30519;SDS011;17300;50.374;8.006;2023-07-20T00:52:23;2.23;;;1.40;;
30519;SDS011;17300;50.374;8.006;2023-07-20T00:54:51;1.73;;;1.27;;
30519;SDS011;17300;50.374;8.006;2023-07-20T00:57:21;2.10;;;1.80;;
30519;SDS011;17300;50.374;8.006;2023-07-20T00:59:49;1.57;;;1.47;;
30519;SDS011;17300;50.374;8.006;2023-07-20T01:02:16;1.67;;;1.40;;
30519;SDS011;17300;50.374;8.006;2023-07-20T01:04:43;1.83;;;1.50;;
30519;SDS011;17300;50.374;8.006;2023-07-20T01:07:12;1.67;;;1.57;;
30519;SDS011;17300;50.374;8.006;2023-07-20T01:09:44;1.87;;;1.50;;
30519;SDS011;17300;50.374;8.006;2023-07-20T01:12:17;2.00;;;1.50;;
30519;SDS011;17300;50.374;8.006;2023-07-20T01:14:48;1.50;;;1.40;;
30519;SDS011;17300;50.374;8.006;2023-07-20T01:17:16;3.27;;;1.73;;
30519;SDS011;17300;50.374;8.006;2023-07-20T01:19:42;1.90;;;1.50;;
30519;SDS011;17300;50.374;8.006;2023-07-20T01:22:12;2.33;;;1.60;;
30519;SDS011;17300;50.374;8.006;2023-07-20T01:25:10;1.93;;;1.43;;
30519;SDS011;17300;50.374;8.006;2023-07-20T01:28:02;1.53;;;1.30;;
30519;SDS011;17300;50.374;8.006;2023-07-20T01:30:55;1.90;;;1.60;;
30519;SDS011;17300;50.374;8.006;2023-07-20T01:33:27;1.80;;;1.40;;
30519;SDS011;17300;50.374;8.006;2023-07-20T01:35:56;1.57;;;1.47;;
30519;SDS011;17300;50.374;8.006;2023-07-20T01:38:25;1.83;;;1.50;;
30519;SDS011;17300;50.374;8.006;2023-07-20T01:40:52;1.83;;;1.50;;
30519;SDS011;17300;50.374;8.006;2023-07-20T01:43:19;1.63;;;1.37;;
30519;SDS011;17300;50.374;8.006;2023-07-20T01:45:46;1.90;;;1.57;;
30519;SDS011;17300;50.374;8.006;2023-07-20T01:48:12;1.60;;;1.50;;
30519;SDS011;17300;50.374;8.006;2023-07-20T01:50:40;2.43;;;1.60;;
30519;SDS011;17300;50.374;8.006;2023-07-20T01:53:08;1.87;;;1.50;;
30519;SDS011;17300;50.374;8.006;2023-07-20T01:55:34;1.70;;;1.50;;
30519;SDS011;17300;50.374;8.006;2023-07-20T01:58:01;3.57;;;1.83;;
30519;SDS011;17300;50.374;8.006;2023-07-20T02:00:28;3.67;;;1.90;;
30519;SDS011;17300;50.374;8.006;2023-07-20T02:02:55;2.97;;;1.70;;
30519;SDS011;17300;50.374;8.006;2023-07-20T02:05:22;1.83;;;1.50;;
30519;SDS011;17300;50.374;8.006;2023-07-20T02:07:51;1.87;;;1.60;;
30519;SDS011;17300;50.374;8.006;2023-07-20T02:10:17;1.90;;;1.67;;
30519;SDS011;17300;50.374;8.006;2023-07-20T02:12:44;2.20;;;1.70;;
30519;SDS011;17300;50.374;8.006;2023-07-20T02:15:10;1.50;;;1.40;;
30519;SDS011;17300;50.374;8.006;2023-07-20T02:17:38;2.77;;;1.60;;
30519;SDS011;17300;50.374;8.006;2023-07-20T02:20:06;1.50;;;1.40;;
30519;SDS011;17300;50.374;8.006;2023-07-20T02:22:35;2.30;;;1.60;;
30519;SDS011;17300;50.374;8.006;2023-07-20T02:25:03;1.77;;;1.60;;
30519;SDS011;17300;50.374;8.006;2023-07-20T02:27:30;1.90;;;1.60;;
30519;SDS011;17300;50.374;8.006;2023-07-20T02:29:57;2.23;;;1.53;;
30519;SDS011;17300;50.374;8.006;2023-07-20T02:32:23;1.50;;;1.40;;
30519;SDS011;17300;50.374;8.006;2023-07-20T02:34:50;2.20;;;1.70;;
30519;SDS011;17300;50.374;8.006;2023-07-20T02:37:17;1.70;;;1.60;;
30519;SDS011;17300;50.374;8.006;2023-07-20T02:39:43;1.53;;;1.43;;
30519;SDS011;17300;50.374;8.006;2023-07-20T02:42:11;2.77;;;1.70;;
30519;SDS011;17300;50.374;8.006;2023-07-20T02:44:39;1.70;;;1.50;;
30519;SDS011;17300;50.374;8.006;2023-07-20T02:47:06;2.00;;;1.40;;
30519;SDS011;17300;50.374;8.006;2023-07-20T02:49:32;1.70;;;1.60;;
30519;SDS011;17300;50.374;8.006;2023-07-20T02:51:59;2.87;;;1.63;;
30519;SDS011;17300;50.374;8.006;2023-07-20T02:54:26;2.93;;;1.70;;
30519;SDS011;17300;50.374;8.006;2023-07-20T02:56:52;3.43;;;2.07;;
30519;SDS011;17300;50.374;8.006;2023-07-20T02:59:21;2.23;;;1.80;;
30519;SDS011;17300;50.374;8.006;2023-07-20T03:01:48;3.00;;;1.87;;
30519;SDS011;17300;50.374;8.006;2023-07-20T03:04:14;1.87;;;1.53;;
30519;SDS011;17300;50.374;8.006;2023-07-20T03:06:41;2.00;;;1.80;;
30519;SDS011;17300;50.374;8.006;2023-07-20T03:09:08;1.57;;;1.40;;
30519;SDS011;17300;50.374;8.006;2023-07-20T03:11:34;1.90;;;1.53;;
30519;SDS011;17300;50.374;8.006;2023-07-20T03:14:01;1.60;;;1.50;;
30519;SDS011;17300;50.374;8.006;2023-07-20T03:16:29;2.10;;;1.70;;
30519;SDS011;17300;50.374;8.006;2023-07-20T03:18:58;2.93;;;1.83;;
30519;SDS011;17300;50.374;8.006;2023-07-20T03:21:25;2.07;;;1.63;;
30519;SDS011;17300;50.374;8.006;2023-07-20T03:23:52;1.67;;;1.57;;
30519;SDS011;17300;50.374;8.006;2023-07-20T03:26:19;1.67;;;1.50;;
30519;SDS011;17300;50.374;8.006;2023-07-20T03:28:45;3.17;;;1.80;;
30519;SDS011;17300;50.374;8.006;2023-07-20T03:31:13;2.13;;;1.80;;
30519;SDS011;17300;50.374;8.006;2023-07-20T03:33:42;2.50;;;1.60;;
30519;SDS011;17300;50.374;8.006;2023-07-20T03:36:08;2.13;;;1.73;;
30519;SDS011;17300;50.374;8.006;2023-07-20T03:38:35;2.37;;;1.90;;
30519;SDS011;17300;50.374;8.006;2023-07-20T03:41:02;2.77;;;1.60;;
30519;SDS011;17300;50.374;8.006;2023-07-20T03:43:28;2.53;;;1.90;;
30519;SDS011;17300;50.374;8.006;2023-07-20T03:45:55;1.77;;;1.63;;
30519;SDS011;17300;50.374;8.006;2023-07-20T03:48:23;2.00;;;1.40;;
30519;SDS011;17300;50.374;8.006;2023-07-20T03:50:52;2.37;;;1.77;;
30519;SDS011;17300;50.374;8.006;2023-07-20T03:53:19;1.60;;;1.50;;
30519;SDS011;17300;50.374;8.006;2023-07-20T03:55:46;1.50;;;1.40;;
30519;SDS011;17300;50.374;8.006;2023-07-20T03:58:14;1.90;;;1.70;;
30519;SDS011;17300;50.374;8.006;2023-07-20T04:00:43;2.13;;;1.80;;
30519;SDS011;17300;50.374;8.006;2023-07-20T04:03:10;1.70;;;1.57;;
30519;SDS011;17300;50.374;8.006;2023-07-20T04:05:37;1.87;;;1.63;;
30519;SDS011;17300;50.374;8.006;2023-07-20T04:08:05;1.90;;;1.60;;
30519;SDS011;17300;50.374;8.006;2023-07-20T04:10:32;2.60;;;1.73;;
30519;SDS011;17300;50.374;8.006;2023-07-20T04:12:58;2.23;;;1.83;;
30519;SDS011;17300;50.374;8.006;2023-07-20T04:15:26;2.17;;;1.80;;
30519;SDS011;17300;50.374;8.006;2023-07-20T04:17:53;1.70;;;1.60;;
30519;SDS011;17300;50.374;8.006;2023-07-20T04:20:20;2.37;;;2.10;;
30519;SDS011;17300;50.374;8.006;2023-07-20T04:22:47;2.00;;;1.70;;
30519;SDS011;17300;50.374;8.006;2023-07-20T04:25:15;1.80;;;1.70;;
30519;SDS011;17300;50.374;8.006;2023-07-20T04:27:42;1.50;;;1.40;;
30519;SDS011;17300;50.374;8.006;2023-07-20T04:30:09;2.43;;;1.80;;
30519;SDS011;17300;50.374;8.006;2023-07-20T04:32:36;1.93;;;1.57;;
30519;SDS011;17300;50.374;8.006;2023-07-20T04:35:05;2.07;;;1.87;;
30519;SDS011;17300;50.374;8.006;2023-07-20T04:37:32;2.17;;;1.77;;
30519;SDS011;17300;50.374;8.006;2023-07-20T04:39:59;3.00;;;1.90;;
30519;SDS011;17300;50.374;8.006;2023-07-20T04:42:28;2.10;;;1.90;;
30519;SDS011;17300;50.374;8.006;2023-07-20T04:44:54;1.90;;;1.70;;
30519;SDS011;17300;50.374;8.006;2023-07-20T04:47:21;1.50;;;1.40;;
30519;SDS011;17300;50.374;8.006;2023-07-20T04:49:47;3.20;;;2.00;;
30519;SDS011;17300;50.374;8.006;2023-07-20T04:52:14;1.70;;;1.60;;
30519;SDS011;17300;50.374;8.006;2023-07-20T04:54:41;2.20;;;1.80;;
30519;SDS011;17300;50.374;8.006;2023-07-20T04:57:09;1.90;;;1.70;;
30519;SDS011;17300;50.374;8.006;2023-07-20T04:59:38;1.97;;;1.67;;
30519;SDS011;17300;50.374;8.006;2023-07-20T05:02:05;2.00;;;1.40;;
30519;SDS011;17300;50.374;8.006;2023-07-20T05:04:32;1.77;;;1.63;;
30519;SDS011;17300;50.374;8.006;2023-07-20T05:06:59;1.67;;;1.57;;
30519;SDS011;17300;50.374;8.006;2023-07-20T05:09:25;1.87;;;1.70;;
30519;SDS011;17300;50.374;8.006;2023-07-20T05:11:52;2.37;;;1.70;;
30519;SDS011;17300;50.374;8.006;2023-07-20T05:14:18;1.77;;;1.60;;
30519;SDS011;17300;50.374;8.006;2023-07-20T05:16:46;2.33;;;1.93;;
30519;SDS011;17300;50.374;8.006;2023-07-20T05:19:13;2.33;;;1.87;;
30519;SDS011;17300;50.374;8.006;2023-07-20T05:21:40;2.17;;;1.90;;
30519;SDS011;17300;50.374;8.006;2023-07-20T05:24:07;2.23;;;1.70;;
30519;SDS011;17300;50.374;8.006;2023-07-20T05:26:33;2.00;;;1.77;;
30519;SDS011;17300;50.374;8.006;2023-07-20T05:29:00;1.77;;;1.63;;
30519;SDS011;17300;50.374;8.006;2023-07-20T05:31:27;1.90;;;1.70;;
30519;SDS011;17300;50.374;8.006;2023-07-20T05:33:56;3.45;;;1.98;;
30519;SDS011;17300;50.374;8.006;2023-07-20T05:36:24;2.80;;;2.15;;
30519;SDS011;17300;50.374;8.006;2023-07-20T05:38:51;2.78;;;2.05;;
30519;SDS011;17300;50.374;8.006;2023-07-20T05:41:17;3.47;;;1.98;;
30519;SDS011;17300;50.374;8.006;2023-07-20T05:43:44;2.95;;;2.30;;
30519;SDS011;17300;50.374;8.006;2023-07-20T05:46:11;3.80;;;1.95;;
30519;SDS011;17300;50.374;8.006;2023-07-20T05:48:37;3.30;;;1.95;;
30519;SDS011;17300;50.374;8.006;2023-07-20T05:51:06;2.03;;;1.60;;
30519;SDS011;17300;50.374;8.006;2023-07-20T05:53:32;1.98;;;1.80;;
30519;SDS011;17300;50.374;8.006;2023-07-20T05:55:59;2.70;;;1.83;;
30519;SDS011;17300;50.374;8.006;2023-07-20T05:58:26;2.00;;;1.65;;
30519;SDS011;17300;50.374;8.006;2023-07-20T06:00:53;1.90;;;1.70;;
30519;SDS011;17300;50.374;8.006;2023-07-20T06:03:19;1.77;;;1.67;;
30519;SDS011;17300;50.374;8.006;2023-07-20T06:05:47;2.00;;;1.77;;
30519;SDS011;17300;50.374;8.006;2023-07-20T06:08:15;1.70;;;1.60;;
30519;SDS011;17300;50.374;8.006;2023-07-20T06:10:41;1.83;;;1.52;;
30519;SDS011;17300;50.374;8.006;2023-07-20T06:13:08;1.65;;;1.50;;
30519;SDS011;17300;50.374;8.006;2023-07-20T06:15:35;3.28;;;1.65;;
30519;SDS011;17300;50.374;8.006;2023-07-20T06:18:01;1.80;;;1.50;;
30519;SDS011;17300;50.374;8.006;2023-07-20T06:20:28;1.52;;;1.35;;
30519;SDS011;17300;50.374;8.006;2023-07-20T06:22:55;2.80;;;1.60;;
30519;SDS011;17300;50.374;8.006;2023-07-20T06:25:23;2.70;;;1.55;;
30519;SDS011;17300;50.374;8.006;2023-07-20T06:27:50;2.00;;;1.50;;
30519;SDS011;17300;50.374;8.006;2023-07-20T06:30:17;1.80;;;1.40;;
30519;SDS011;17300;50.374;8.006;2023-07-20T06:32:44;1.55;;;1.42;;
30519;SDS011;17300;50.374;8.006;2023-07-20T06:35:10;1.67;;;1.55;;
30519;SDS011;17300;50.374;8.006;2023-07-20T06:37:37;2.08;;;1.70;;
30519;SDS011;17300;50.374;8.006;2023-07-20T06:40:04;1.50;;;1.40;;
30519;SDS011;17300;50.374;8.006;2023-07-20T06:42:35;1.77;;;1.50;;
30519;SDS011;17300;50.374;8.006;2023-07-20T06:45:02;1.90;;;1.45;;
30519;SDS011;17300;50.374;8.006;2023-07-20T06:47:29;1.65;;;1.52;;
30519;SDS011;17300;50.374;8.006;2023-07-20T06:49:56;2.15;;;1.70;;
30519;SDS011;17300;50.374;8.006;2023-07-20T06:52:23;2.70;;;1.55;;
30519;SDS011;17300;50.374;8.006;2023-07-20T06:54:49;2.38;;;1.50;;
30519;SDS011;17300;50.374;8.006;2023-07-20T06:57:16;1.95;;;1.60;;
30519;SDS011;17300;50.374;8.006;2023-07-20T06:59:44;2.28;;;1.90;;
30519;SDS011;17300;50.374;8.006;2023-07-20T07:02:11;1.77;;;1.55;;
30519;SDS011;17300;50.374;8.006;2023-07-20T07:04:38;1.98;;;1.45;;
30519;SDS011;17300;50.374;8.006;2023-07-20T07:07:05;1.73;;;1.63;;
30519;SDS011;17300;50.374;8.006;2023-07-20T07:09:31;2.10;;;1.63;;
30519;SDS011;17300;50.374;8.006;2023-07-20T07:11:58;3.10;;;1.80;;
30519;SDS011;17300;50.374;8.006;2023-07-20T07:14:25;2.00;;;1.80;;
30519;SDS011;17300;50.374;8.006;2023-07-20T07:16:53;1.73;;;1.50;;
30519;SDS011;17300;50.374;8.006;2023-07-20T07:19:19;2.30;;;1.65;;
30519;SDS011;17300;50.374;8.006;2023-07-20T07:21:46;1.77;;;1.60;;
30519;SDS011;17300;50.374;8.006;2023-07-20T07:24:13;2.40;;;1.98;;
30519;SDS011;17300;50.374;8.006;2023-07-20T07:26:39;2.65;;;1.90;;
30519;SDS011;17300;50.374;8.006;2023-07-20T07:29:06;4.38;;;1.92;;
30519;SDS011;17300;50.374;8.006;2023-07-20T07:31:33;2.05;;;1.85;;
30519;SDS011;17300;50.374;8.006;2023-07-20T07:34:02;2.10;;;1.90;;
30519;SDS011;17300;50.374;8.006;2023-07-20T07:36:29;3.42;;;2.00;;
30519;SDS011;17300;50.374;8.006;2023-07-20T07:38:56;2.83;;;2.35;;
30519;SDS011;17300;50.374;8.006;2023-07-20T07:41:23;2.63;;;2.10;;
30519;SDS011;17300;50.374;8.006;2023-07-20T07:43:49;2.70;;;2.00;;
30519;SDS011;17300;50.374;8.006;2023-07-20T07:46:16;3.15;;;2.10;;
30519;SDS011;17300;50.374;8.006;2023-07-20T07:48:43;1.98;;;1.88;;
30519;SDS011;17300;50.374;8.006;2023-07-20T07:51:11;2.45;;;2.10;;
30519;SDS011;17300;50.374;8.006;2023-07-20T07:53:38;2.00;;;1.90;;
30519;SDS011;17300;50.374;8.006;2023-07-20T07:56:06;2.63;;;2.05;;
30519;SDS011;17300;50.374;8.006;2023-07-20T07:58:33;2.92;;;2.00;;
30519;SDS011;17300;50.374;8.006;2023-07-20T08:01:00;2.92;;;2.08;;
30519;SDS011;17300;50.374;8.006;2023-07-20T08:03:27;2.83;;;1.90;;
30519;SDS011;17300;50.374;8.006;2023-07-20T08:05:53;2.88;;;2.10;;
30519;SDS011;17300;50.374;8.006;2023-07-20T08:08:22;3.00;;;2.20;;
30519;SDS011;17300;50.374;8.006;2023-07-20T08:10:49;4.55;;;2.22;;
30519;SDS011;17300;50.374;8.006;2023-07-20T08:13:19;2.38;;;2.00;;
30519;SDS011;17300;50.374;8.006;2023-07-20T08:15:46;2.40;;;2.03;;
30519;SDS011;17300;50.374;8.006;2023-07-20T08:18:15;1.98;;;1.80;;
30519;SDS011;17300;50.374;8.006;2023-07-20T08:20:43;3.17;;;1.90;;
30519;SDS011;17300;50.374;8.006;2023-07-20T08:23:10;2.55;;;2.20;;
30519;SDS011;17300;50.374;8.006;2023-07-20T08:25:38;2.83;;;1.95;;
30519;SDS011;17300;50.374;8.006;2023-07-20T08:28:08;2.03;;;1.70;;
30519;SDS011;17300;50.374;8.006;2023-07-20T08:30:39;3.28;;;2.17;;
30519;SDS011;17300;50.374;8.006;2023-07-20T08:33:06;1.58;;;1.48;;
30519;SDS011;17300;50.374;8.006;2023-07-20T08:35:33;2.17;;;1.50;;
30519;SDS011;17300;50.374;8.006;2023-07-20T08:38:00;1.63;;;1.52;;
30519;SDS011;17300;50.374;8.006;2023-07-20T08:40:29;1.80;;;1.50;;
30519;SDS011;17300;50.374;8.006;2023-07-20T08:42:57;2.47;;;1.40;;
30519;SDS011;17300;50.374;8.006;2023-07-20T08:45:25;1.75;;;1.38;;
30519;SDS011;17300;50.374;8.006;2023-07-20T08:47:53;1.55;;;1.45;;
30519;SDS011;17300;50.374;8.006;2023-07-20T08:50:21;1.48;;;1.23;;
30519;SDS011;17300;50.374;8.006;2023-07-20T08:52:50;2.00;;;1.33;;
30519;SDS011;17300;50.374;8.006;2023-07-20T08:55:18;1.40;;;1.30;;
30519;SDS011;17300;50.374;8.006;2023-07-20T08:57:47;2.08;;;1.48;;
30519;SDS011;17300;50.374;8.006;2023-07-20T09:00:17;1.50;;;1.23;;
30519;SDS011;17300;50.374;8.006;2023-07-20T09:02:46;2.05;;;1.35;;
30519;SDS011;17300;50.374;8.006;2023-07-20T09:05:15;1.60;;;1.10;;
30519;SDS011;17300;50.374;8.006;2023-07-20T09:07:42;0.90;;;0.90;;
30519;SDS011;17300;50.374;8.006;2023-07-20T09:10:09;0.70;;;0.70;;
30519;SDS011;17300;50.374;8.006;2023-07-20T09:12:37;0.80;;;0.80;;
30519;SDS011;17300;50.374;8.006;2023-07-20T09:15:05;0.80;;;0.80;;
30519;SDS011;17300;50.374;8.006;2023-07-20T09:17:33;0.70;;;0.70;;
30519;SDS011;17300;50.374;8.006;2023-07-20T09:20:01;1.08;;;0.82;;
30519;SDS011;17300;50.374;8.006;2023-07-20T09:22:30;1.00;;;0.90;;
30519;SDS011;17300;50.374;8.006;2023-07-20T09:24:57;0.85;;;0.80;;
30519;SDS011;17300;50.374;8.006;2023-07-20T09:27:29;1.95;;;1.20;;
30519;SDS011;17300;50.374;8.006;2023-07-20T09:30:02;1.05;;;0.95;;
30519;SDS011;17300;50.374;8.006;2023-07-20T09:32:34;1.92;;;0.90;;
30519;SDS011;17300;50.374;8.006;2023-07-20T09:35:04;0.80;;;0.75;;
30519;SDS011;17300;50.374;8.006;2023-07-20T09:37:32;1.58;;;0.82;;
30519;SDS011;17300;50.374;8.006;2023-07-20T09:39:58;1.20;;;0.90;;
30519;SDS011;17300;50.374;8.006;2023-07-20T09:42:25;0.60;;;0.60;;
30519;SDS011;17300;50.374;8.006;2023-07-20T09:44:52;1.38;;;0.80;;
30519;SDS011;17300;50.374;8.006;2023-07-20T09:47:22;1.42;;;0.95;;
30519;SDS011;17300;50.374;8.006;2023-07-20T09:49:51;2.40;;;0.90;;
30519;SDS011;17300;50.374;8.006;2023-07-20T09:52:25;1.00;;;0.90;;
30519;SDS011;17300;50.374;8.006;2023-07-20T09:54:52;0.88;;;0.77;;
30519;SDS011;17300;50.374;8.006;2023-07-20T09:57:20;0.80;;;0.75;;
30519;SDS011;17300;50.374;8.006;2023-07-20T09:59:47;1.15;;;0.85;;
30519;SDS011;17300;50.374;8.006;2023-07-20T10:02:16;1.40;;;0.75;;
30519;SDS011;17300;50.374;8.006;2023-07-20T10:04:47;1.85;;;0.90;;
30519;SDS011;17300;50.374;8.006;2023-07-20T10:07:18;1.15;;;0.70;;
30519;SDS011;17300;50.374;8.006;2023-07-20T10:09:48;0.80;;;0.70;;
30519;SDS011;17300;50.374;8.006;2023-07-20T10:12:19;0.82;;;0.82;;
30519;SDS011;17300;50.374;8.006;2023-07-20T10:14:49;1.00;;;0.70;;
30519;SDS011;17300;50.374;8.006;2023-07-20T10:17:23;0.93;;;0.70;;
30519;SDS011;17300;50.374;8.006;2023-07-20T10:19:54;0.70;;;0.70;;
30519;SDS011;17300;50.374;8.006;2023-07-20T10:22:25;0.80;;;0.80;;
30519;SDS011;17300;50.374;8.006;2023-07-20T10:24:53;0.75;;;0.70;;
30519;SDS011;17300;50.374;8.006;2023-07-20T10:27:23;1.15;;;0.80;;
30519;SDS011;17300;50.374;8.006;2023-07-20T10:29:50;0.88;;;0.73;;
30519;SDS011;17300;50.374;8.006;2023-07-20T10:32:18;0.80;;;0.80;;
30519;SDS011;17300;50.374;8.006;2023-07-20T10:34:49;0.60;;;0.60;;
30519;SDS011;17300;50.374;8.006;2023-07-20T10:40:28;1.58;;;0.80;;
30519;SDS011;17300;50.374;8.006;2023-07-20T10:42:57;3.63;;;0.70;;
30519;SDS011;17300;50.374;8.006;2023-07-20T10:45:42;0.93;;;0.80;;
30519;SDS011;17300;50.374;8.006;2023-07-20T10:48:14;1.05;;;0.80;;
30519;SDS011;17300;50.374;8.006;2023-07-20T10:50:42;0.65;;;0.65;;
30519;SDS011;17300;50.374;8.006;2023-07-20T10:53:14;0.70;;;0.70;;
30519;SDS011;17300;50.374;8.006;2023-07-20T10:55:42;0.65;;;0.65;;
30519;SDS011;17300;50.374;8.006;2023-07-20T10:58:11;0.90;;;0.75;;
30519;SDS011;17300;50.374;8.006;2023-07-20T11:00:54;1.15;;;0.85;;
30519;SDS011;17300;50.374;8.006;2023-07-20T11:03:31;0.73;;;0.73;;
30519;SDS011;17300;50.374;8.006;2023-07-20T11:05:58;1.45;;;0.68;;
30519;SDS011;17300;50.374;8.006;2023-07-20T11:08:41;0.73;;;0.70;;
30519;SDS011;17300;50.374;8.006;2023-07-20T11:11:21;1.90;;;0.80;;
30519;SDS011;17300;50.374;8.006;2023-07-20T11:13:56;1.52;;;0.70;;
30519;SDS011;17300;50.374;8.006;2023-07-20T11:16:36;0.73;;;0.73;;
30519;SDS011;17300;50.374;8.006;2023-07-20T11:19:13;0.68;;;0.63;;
30519;SDS011;17300;50.374;8.006;2023-07-20T11:21:42;0.80;;;0.80;;
30519;SDS011;17300;50.374;8.006;2023-07-20T11:24:11;0.90;;;0.70;;
30519;SDS011;17300;50.374;8.006;2023-07-20T11:26:45;0.60;;;0.60;;
30519;SDS011;17300;50.374;8.006;2023-07-20T11:29:13;0.70;;;0.70;;
30519;SDS011;17300;50.374;8.006;2023-07-20T11:31:42;0.70;;;0.70;;
30519;SDS011;17300;50.374;8.006;2023-07-20T11:34:10;0.60;;;0.60;;
30519;SDS011;17300;50.374;8.006;2023-07-20T11:36:38;0.70;;;0.70;;
30519;SDS011;17300;50.374;8.006;2023-07-20T11:39:06;0.57;;;0.52;;
30519;SDS011;17300;50.374;8.006;2023-07-20T11:41:35;1.02;;;0.80;;
30519;SDS011;17300;50.374;8.006;2023-07-20T11:44:03;0.80;;;0.80;;
30519;SDS011;17300;50.374;8.006;2023-07-20T11:46:31;0.68;;;0.68;;
30519;SDS011;17300;50.374;8.006;2023-07-20T11:48:58;0.80;;;0.80;;
30519;SDS011;17300;50.374;8.006;2023-07-20T11:51:26;0.65;;;0.65;;
30519;SDS011;17300;50.374;8.006;2023-07-20T11:53:54;0.68;;;0.68;;
30519;SDS011;17300;50.374;8.006;2023-07-20T11:58:50;0.50;;;0.50;;
30519;SDS011;17300;50.374;8.006;2023-07-20T12:01:20;0.73;;;0.60;;
30519;SDS011;17300;50.374;8.006;2023-07-20T12:03:47;0.70;;;0.70;;
30519;SDS011;17300;50.374;8.006;2023-07-20T12:06:15;0.77;;;0.77;;
30519;SDS011;17300;50.374;8.006;2023-07-20T12:08:42;0.90;;;0.55;;
30519;SDS011;17300;50.374;8.006;2023-07-20T12:11:10;0.60;;;0.60;;
30519;SDS011;17300;50.374;8.006;2023-07-20T12:13:37;0.60;;;0.60;;
30519;SDS011;17300;50.374;8.006;2023-07-20T12:16:12;1.08;;;0.90;;
30519;SDS011;17300;50.374;8.006;2023-07-20T12:18:42;1.50;;;0.70;;
30519;SDS011;17300;50.374;8.006;2023-07-20T12:21:09;1.00;;;0.80;;
30519;SDS011;17300;50.374;8.006;2023-07-20T12:23:37;0.80;;;0.80;;
30519;SDS011;17300;50.374;8.006;2023-07-20T12:26:06;0.75;;;0.75;;
30519;SDS011;17300;50.374;8.006;2023-07-20T12:28:35;0.82;;;0.70;;
30519;SDS011;17300;50.374;8.006;2023-07-20T12:31:04;0.65;;;0.65;;
30519;SDS011;17300;50.374;8.006;2023-07-20T12:33:32;0.95;;;0.70;;
30519;SDS011;17300;50.374;8.006;2023-07-20T12:35:59;2.15;;;0.70;;
30519;SDS011;17300;50.374;8.006;2023-07-20T12:38:26;0.60;;;0.60;;
30519;SDS011;17300;50.374;8.006;2023-07-20T12:40:53;0.98;;;0.80;;
30519;SDS011;17300;50.374;8.006;2023-07-20T12:43:21;0.90;;;0.90;;
30519;SDS011;17300;50.374;8.006;2023-07-20T12:45:47;0.95;;;0.68;;
30519;SDS011;17300;50.374;8.006;2023-07-20T12:48:14;0.77;;;0.77;;
30519;SDS011;17300;50.374;8.006;2023-07-20T12:50:42;0.75;;;0.75;;
30519;SDS011;17300;50.374;8.006;2023-07-20T12:53:09;0.70;;;0.70;;
30519;SDS011;17300;50.374;8.006;2023-07-20T12:55:36;0.60;;;0.60;;
30519;SDS011;17300;50.374;8.006;2023-07-20T12:58:03;0.70;;;0.70;;
30519;SDS011;17300;50.374;8.006;2023-07-20T13:00:30;0.70;;;0.70;;
30519;SDS011;17300;50.374;8.006;2023-07-20T13:02:57;0.70;;;0.70;;
30519;SDS011;17300;50.374;8.006;2023-07-20T13:05:24;0.80;;;0.80;;
30519;SDS011;17300;50.374;8.006;2023-07-20T13:07:52;0.90;;;0.80;;
30519;SDS011;17300;50.374;8.006;2023-07-20T13:10:19;0.73;;;0.70;;
30519;SDS011;17300;50.374;8.006;2023-07-20T13:12:45;1.55;;;0.77;;
30519;SDS011;17300;50.374;8.006;2023-07-20T13:15:12;0.90;;;0.90;;
30519;SDS011;17300;50.374;8.006;2023-07-20T13:17:39;0.60;;;0.60;;
30519;SDS011;17300;50.374;8.006;2023-07-20T13:20:06;1.00;;;0.90;;
30519;SDS011;17300;50.374;8.006;2023-07-20T13:22:35;0.60;;;0.60;;
30519;SDS011;17300;50.374;8.006;2023-07-20T13:25:03;0.70;;;0.70;;
30519;SDS011;17300;50.374;8.006;2023-07-20T13:27:31;1.00;;;0.82;;
30519;SDS011;17300;50.374;8.006;2023-07-20T13:29:58;0.85;;;0.80;;
30519;SDS011;17300;50.374;8.006;2023-07-20T13:32:25;0.70;;;0.70;;
30519;SDS011;17300;50.374;8.006;2023-07-20T13:34:52;0.68;;;0.68;;
30519;SDS011;17300;50.374;8.006;2023-07-20T13:37:19;0.85;;;0.75;;
30519;SDS011;17300;50.374;8.006;2023-07-20T13:39:46;0.80;;;0.80;;
30519;SDS011;17300;50.374;8.006;2023-07-20T13:42:14;0.90;;;0.90;;
30519;SDS011;17300;50.374;8.006;2023-07-20T13:44:42;0.75;;;0.65;;
30519;SDS011;17300;50.374;8.006;2023-07-20T13:47:09;0.80;;;0.80;;
30519;SDS011;17300;50.374;8.006;2023-07-20T13:49:35;0.75;;;0.70;;
30519;SDS011;17300;50.374;8.006;2023-07-20T13:52:03;2.13;;;0.77;;
30519;SDS011;17300;50.374;8.006;2023-07-20T13:54:30;0.93;;;0.88;;
30519;SDS011;17300;50.374;8.006;2023-07-20T13:56:57;0.85;;;0.85;;
30519;SDS011;17300;50.374;8.006;2023-07-20T13:59:25;1.77;;;0.80;;
30519;SDS011;17300;50.374;8.006;2023-07-20T14:01:51;1.00;;;0.85;;
30519;SDS011;17300;50.374;8.006;2023-07-20T14:04:18;0.80;;;0.77;;
30519;SDS011;17300;50.374;8.006;2023-07-20T14:06:45;0.80;;;0.80;;
30519;SDS011;17300;50.374;8.006;2023-07-20T14:09:12;1.95;;;0.98;;
30519;SDS011;17300;50.374;8.006;2023-07-20T14:11:39;0.93;;;0.80;;
30519;SDS011;17300;50.374;8.006;2023-07-20T14:14:06;0.82;;;0.70;;
30519;SDS011;17300;50.374;8.006;2023-07-20T14:16:34;1.73;;;0.90;;
30519;SDS011;17300;50.374;8.006;2023-07-20T14:19:01;0.88;;;0.80;;
30519;SDS011;17300;50.374;8.006;2023-07-20T14:21:29;1.00;;;0.70;;
30519;SDS011;17300;50.374;8.006;2023-07-20T14:23:56;0.70;;;0.70;;
30519;SDS011;17300;50.374;8.006;2023-07-20T14:26:23;0.95;;;0.85;;
30519;SDS011;17300;50.374;8.006;2023-07-20T14:28:50;1.40;;;1.30;;
30519;SDS011;17300;50.374;8.006;2023-07-20T14:31:16;5.68;;;1.10;;
30519;SDS011;17300;50.374;8.006;2023-07-20T14:33:45;1.05;;;0.80;;
30519;SDS011;17300;50.374;8.006;2023-07-20T14:36:11;0.60;;;0.60;;
30519;SDS011;17300;50.374;8.006;2023-07-20T14:38:38;0.80;;;0.80;;
30519;SDS011;17300;50.374;8.006;2023-07-20T14:41:05;1.20;;;0.80;;
30519;SDS011;17300;50.374;8.006;2023-07-20T14:43:35;0.60;;;0.60;;
30519;SDS011;17300;50.374;8.006;2023-07-20T14:46:10;0.70;;;0.70;;
30519;SDS011;17300;50.374;8.006;2023-07-20T14:49:06;0.70;;;0.68;;
30519;SDS011;17300;50.374;8.006;2023-07-20T14:51:35;0.77;;;0.70;;
30519;SDS011;17300;50.374;8.006;2023-07-20T14:54:08;0.60;;;0.60;;
30519;SDS011;17300;50.374;8.006;2023-07-20T14:56:35;0.80;;;0.80;;
30519;SDS011;17300;50.374;8.006;2023-07-20T14:59:02;0.68;;;0.68;;